Aviation Digital Data Service (ADDS)

Output produced by METARs form (2058 UTC 18 September 2018)
found at http://www.aviationweather.gov/metar/data/
 
KPNS 182053Z 15006KT 10SM SCT025 31/25 A2990 RMK AO2 LTG DSNT W SLP127 60001 T03110250 56017
KPNS 181738Z 1818/1918 VRB03KT P6SM VCTS SCT030CB SCT250 
     TEMPO 1818/1821 3SM TSRA BKN030CB OVC070 
     FM191000 35003KT 5SM BR SKC 
     FM191400 03003KT P6SM SCT030